Time;durP1;ratioP1;P1;durP2;ratioP2;P2;SDS_P1;SDS_P2;PMS_P1;PMS_P2;Temp;Humidity;BMP_temperature;BMP_pressure;BME280_temperature;BME280_humidity;BME280_pressure;Samples;Min_cycle;Max_cycle;Signal;HPM_P1;HPM_P2
2023/11/16 00:00:14;;;;;;;29.73;7.03;;;8.90;99.90;;;;;;5030443;28;20021;-72
2023/11/16 00:02:43;;;;;;;23.55;6.93;;;8.90;99.90;;;;;;5031258;28;20119;-74
2023/11/16 00:05:13;;;;;;;20.77;7.07;;;8.90;99.90;;;;;;5030904;28;20046;-73
2023/11/16 00:07:41;;;;;;;30.40;6.80;;;8.90;99.90;;;;;;5031113;28;20732;-73
2023/11/16 00:10:09;;;;;;;26.58;6.38;;;8.90;99.90;;;;;;5030064;28;20035;-73
2023/11/16 00:12:34;;;;;;;18.83;6.18;;;8.90;99.90;;;;;;5030711;28;20495;-70
2023/11/16 00:15:00;;;;;;;15.13;6.35;;;8.90;99.90;;;;;;5030373;28;20025;-74
2023/11/16 00:17:28;;;;;;;19.30;5.47;;;9.00;99.90;;;;;;5045094;28;20022;-74
2023/11/16 00:19:57;;;;;;;18.05;6.35;;;8.90;99.90;;;;;;5030751;28;20029;-72
2023/11/16 00:22:22;;;;;;;19.63;5.22;;;8.90;99.90;;;;;;5031310;28;20034;-74
2023/11/16 00:24:48;;;;;;;22.10;5.97;;;8.90;99.90;;;;;;5031251;28;20041;-77
2023/11/16 00:27:14;;;;;;;17.48;5.07;;;8.90;99.90;;;;;;5031129;28;20026;-75
2023/11/16 00:29:39;;;;;;;17.90;4.45;;;8.90;99.90;;;;;;5030837;28;20711;-74
2023/11/16 00:32:05;;;;;;;16.70;3.58;;;8.90;99.90;;;;;;5030743;28;20030;-75
2023/11/16 00:34:31;;;;;;;18.20;4.22;;;8.90;99.90;;;;;;5030492;28;20030;-71
2023/11/16 00:36:56;;;;;;;18.23;3.72;;;8.90;99.90;;;;;;5030691;28;20025;-72
2023/11/16 00:39:22;;;;;;;21.90;3.85;;;9.00;99.90;;;;;;5030627;28;20034;-74
2023/11/16 00:41:48;;;;;;;11.65;2.67;;;8.90;99.90;;;;;;5030336;28;20034;-73
2023/11/16 00:44:19;;;;;;;8.48;2.90;;;8.90;99.90;;;;;;5030885;28;20089;-75
2023/11/16 00:46:46;;;;;;;13.60;2.53;;;8.90;99.90;;;;;;5031154;28;20521;-71
2023/11/16 00:49:11;;;;;;;8.43;1.98;;;8.80;99.90;;;;;;5030360;28;20056;-75
2023/11/16 00:51:37;;;;;;;13.13;2.35;;;8.90;99.90;;;;;;5030648;28;20033;-75
2023/11/16 00:54:03;;;;;;;14.57;1.92;;;8.80;99.90;;;;;;5030421;28;20136;-76
2023/11/16 00:56:32;;;;;;;11.77;2.47;;;8.80;99.90;;;;;;5036417;28;20060;-74
2023/11/16 00:58:58;;;;;;;15.98;2.17;;;8.70;99.90;;;;;;5030436;28;20126;-74
2023/11/16 01:01:26;;;;;;;9.88;2.20;;;8.70;99.90;;;;;;5030400;28;20066;-74
2023/11/16 01:03:53;;;;;;;14.27;2.17;;;8.70;99.90;;;;;;5030384;28;20022;-74
2023/11/16 01:06:19;;;;;;;9.85;1.90;;;8.70;99.90;;;;;;5030750;28;20174;-74
2023/11/16 01:08:46;;;;;;;10.07;2.33;;;8.70;99.90;;;;;;5030200;28;20030;-74
2023/11/16 01:11:15;;;;;;;17.35;2.10;;;8.70;99.90;;;;;;5030698;28;20419;-73
2023/11/16 01:13:42;;;;;;;11.25;1.90;;;8.80;99.90;;;;;;5030397;28;20036;-71
2023/11/16 01:16:15;;;;;;;8.40;1.38;;;8.70;99.90;;;;;;5029774;28;20049;-76
2023/11/16 01:18:51;;;;;;;7.80;1.45;;;8.70;99.90;;;;;;5030938;28;20091;-75
2023/11/16 01:21:18;;;;;;;8.32;1.35;;;8.70;99.90;;;;;;5031979;28;20497;-74
2023/11/16 01:23:46;;;;;;;9.63;1.13;;;8.70;99.90;;;;;;5033853;28;20033;-73
2023/11/16 01:26:15;;;;;;;11.30;1.38;;;8.80;99.90;;;;;;5033824;28;20032;-73
2023/11/16 01:29:04;;;;;;;13.55;1.30;;;8.70;99.90;;;;;;5033771;28;20627;-73
2023/11/16 01:31:30;;;;;;;9.40;1.30;;;8.70;99.90;;;;;;5033815;28;20030;-75
2023/11/16 01:33:56;;;;;;;9.38;1.25;;;8.60;99.90;;;;;;5034016;28;20150;-74
2023/11/16 01:36:24;;;;;;;7.10;1.15;;;8.70;99.90;;;;;;5033363;28;20097;-77
2023/11/16 01:38:50;;;;;;;8.48;1.10;;;8.70;99.90;;;;;;5034529;28;20022;-76
2023/11/16 01:41:18;;;;;;;7.95;0.93;;;8.50;99.90;;;;;;5032566;28;20022;-80
2023/11/16 01:43:45;;;;;;;5.60;0.90;;;8.60;99.90;;;;;;5033487;28;20052;-75
2023/11/16 01:46:12;;;;;;;10.68;1.20;;;8.60;99.90;;;;;;5033682;28;20060;-77
2023/11/16 01:48:41;;;;;;;8.88;1.50;;;8.60;99.90;;;;;;5033199;28;20021;-74
2023/11/16 01:51:11;;;;;;;11.23;1.08;;;8.70;99.90;;;;;;5031443;28;20080;-77
2023/11/16 01:53:41;;;;;;;11.82;1.13;;;8.60;99.90;;;;;;5040079;28;20026;-75
2023/11/16 01:56:08;;;;;;;12.20;1.20;;;8.60;99.90;;;;;;5032618;28;20021;-71
2023/11/16 01:58:33;;;;;;;8.68;0.75;;;8.60;99.90;;;;;;5033493;28;20036;-78
2023/11/16 02:01:03;;;;;;;7.38;1.30;;;8.50;99.90;;;;;;5039027;28;20029;-74
2023/11/16 02:03:29;;;;;;;8.60;1.27;;;8.50;99.90;;;;;;5033364;28;20028;-73
2023/11/16 02:05:56;;;;;;;13.98;1.42;;;8.50;99.90;;;;;;5033466;28;20161;-76
2023/11/16 02:08:22;;;;;;;11.38;1.20;;;8.40;99.90;;;;;;5032623;28;20108;-75
2023/11/16 02:10:48;;;;;;;7.25;0.88;;;8.40;99.90;;;;;;5032897;28;20534;-75
2023/11/16 02:13:20;;;;;;;9.23;1.45;;;8.50;99.90;;;;;;5033476;28;20108;-74
2023/11/16 02:15:58;;;;;;;8.40;1.30;;;8.40;99.90;;;;;;5032965;28;20059;-76
2023/11/16 02:18:25;;;;;;;15.80;1.85;;;8.40;99.90;;;;;;5032772;28;20089;-74
2023/11/16 02:20:55;;;;;;;10.02;1.25;;;8.30;99.90;;;;;;5032802;28;20018;-72
2023/11/16 02:23:21;;;;;;;17.90;1.80;;;8.40;99.90;;;;;;5033120;28;20025;-75
2023/11/16 02:25:52;;;;;;;8.55;0.95;;;8.40;99.90;;;;;;5032254;28;20044;-78
2023/11/16 02:28:20;;;;;;;9.32;1.35;;;8.30;99.90;;;;;;5033084;28;20478;-75
2023/11/16 02:30:49;;;;;;;5.78;1.05;;;8.40;99.90;;;;;;5032010;28;20053;-76
2023/11/16 02:33:15;;;;;;;16.23;1.63;;;8.40;99.90;;;;;;5031893;28;20103;-80
2023/11/16 02:35:42;;;;;;;13.15;1.58;;;8.40;99.90;;;;;;5032924;28;20025;-74
2023/11/16 02:38:08;;;;;;;11.45;1.73;;;8.40;99.90;;;;;;5047248;28;20033;-74
2023/11/16 02:40:34;;;;;;;11.82;1.42;;;8.40;99.90;;;;;;5039277;28;20025;-75
2023/11/16 02:43:02;;;;;;;15.95;1.58;;;8.30;99.90;;;;;;5032410;28;20128;-75
2023/11/16 02:45:28;;;;;;;10.57;1.48;;;8.30;99.90;;;;;;5032373;28;20104;-74
2023/11/16 02:47:54;;;;;;;5.38;1.08;;;8.20;99.90;;;;;;5032852;28;20056;-75
2023/11/16 02:50:22;;;;;;;9.57;1.20;;;8.20;99.90;;;;;;5031457;28;20466;-74
2023/11/16 02:52:48;;;;;;;13.35;1.33;;;8.20;99.90;;;;;;5032472;28;20049;-75
2023/11/16 02:55:15;;;;;;;13.02;1.83;;;8.10;99.90;;;;;;5032271;28;20022;-75
2023/11/16 02:57:41;;;;;;;4.22;1.23;;;8.10;99.90;;;;;;5032056;28;20018;-74
2023/11/16 03:00:13;;;;;;;7.80;1.35;;;8.10;99.90;;;;;;5031978;28;20033;-75
2023/11/16 03:02:42;;;;;;;11.35;2.17;;;8.00;99.90;;;;;;5032599;28;20052;-75
2023/11/16 03:05:13;;;;;;;11.77;1.50;;;8.10;99.90;;;;;;5032314;28;20471;-75
2023/11/16 03:07:40;;;;;;;10.02;1.88;;;8.00;99.90;;;;;;5047557;28;20032;-73
2023/11/16 03:10:07;;;;;;;12.95;1.67;;;8.00;99.90;;;;;;5031967;28;20018;-75
2023/11/16 03:12:34;;;;;;;7.40;1.58;;;8.00;99.90;;;;;;5031733;28;20026;-73
2023/11/16 03:15:01;;;;;;;11.13;1.75;;;7.90;99.90;;;;;;5031345;28;20029;-75
2023/11/16 03:17:27;;;;;;;18.48;1.73;;;7.90;99.90;;;;;;5031364;28;20022;-73
2023/11/16 03:19:53;;;;;;;6.53;1.25;;;7.90;99.90;;;;;;5031640;28;20029;-74
2023/11/16 03:22:19;;;;;;;9.23;1.27;;;7.90;99.90;;;;;;5032007;28;20052;-74
2023/11/16 03:24:45;;;;;;;9.02;1.10;;;7.90;99.90;;;;;;5038379;28;20120;-72
2023/11/16 03:27:10;;;;;;;8.82;1.13;;;7.80;99.90;;;;;;5031680;28;20014;-73
2023/11/16 03:29:37;;;;;;;7.88;1.05;;;7.80;99.90;;;;;;5031866;28;20032;-73
2023/11/16 03:32:07;;;;;;;6.70;1.10;;;7.80;99.90;;;;;;5031305;28;20029;-75
2023/11/16 03:34:33;;;;;;;6.82;1.15;;;7.70;99.90;;;;;;5037481;28;20035;-74
2023/11/16 03:36:58;;;;;;;3.10;0.60;;;7.70;99.90;;;;;;5030688;28;20078;-75
2023/11/16 03:39:27;;;;;;;6.22;0.65;;;7.60;99.90;;;;;;5031579;28;20025;-75
2023/11/16 03:41:53;;;;;;;6.55;1.20;;;7.60;99.90;;;;;;5030474;28;20014;-74
2023/11/16 03:44:19;;;;;;;7.55;1.08;;;7.60;99.90;;;;;;5031517;28;20363;-72
2023/11/16 03:46:44;;;;;;;4.15;0.82;;;7.60;99.90;;;;;;5031986;28;20021;-74
2023/11/16 03:49:15;;;;;;;9.75;1.40;;;7.60;99.90;;;;;;5030916;28;20040;-73
2023/11/16 03:51:41;;;;;;;5.60;0.70;;;7.60;99.90;;;;;;5031825;28;20026;-74
2023/11/16 03:54:06;;;;;;;4.75;0.63;;;7.50;99.90;;;;;;5031195;28;20030;-70
2023/11/16 03:56:32;;;;;;;6.28;0.73;;;7.50;99.90;;;;;;5031007;28;20494;-75
2023/11/16 03:58:58;;;;;;;5.70;0.52;;;7.40;99.90;;;;;;5038137;28;20021;-72
2023/11/16 04:01:26;;;;;;;5.93;0.60;;;7.40;99.90;;;;;;5030835;28;20025;-77
2023/11/16 04:03:52;;;;;;;5.97;0.80;;;7.40;99.90;;;;;;5030715;28;20037;-74
2023/11/16 04:06:19;;;;;;;2.67;0.40;;;7.40;99.90;;;;;;5037736;28;20037;-75
2023/11/16 04:08:46;;;;;;;4.38;0.52;;;7.30;99.90;;;;;;5030625;28;20383;-71
2023/11/16 04:11:11;;;;;;;6.35;0.55;;;7.30;99.90;;;;;;5031164;28;20097;-74
2023/11/16 04:13:37;;;;;;;5.28;0.40;;;7.30;99.90;;;;;;5031131;28;20053;-74
2023/11/16 04:16:06;;;;;;;4.57;0.47;;;7.30;99.90;;;;;;5030207;28;20049;-73
2023/11/16 04:18:33;;;;;;;6.80;0.77;;;7.30;99.90;;;;;;5030693;28;20013;-71
2023/11/16 04:20:58;;;;;;;3.15;0.35;;;7.20;99.90;;;;;;5029527;28;20069;-72
2023/11/16 04:23:25;;;;;;;2.72;0.40;;;7.20;99.90;;;;;;5030389;28;20040;-72
2023/11/16 04:25:53;;;;;;;3.05;0.50;;;7.20;99.90;;;;;;5030658;28;20036;-73
2023/11/16 04:28:19;;;;;;;3.35;0.40;;;7.20;99.90;;;;;;5029341;28;20515;-74
2023/11/16 04:30:45;;;;;;;4.05;0.70;;;7.00;99.90;;;;;;5030640;28;20061;-72
2023/11/16 04:33:11;;;;;;;6.32;0.50;;;7.10;99.90;;;;;;5031137;28;20059;-73
2023/11/16 04:35:37;;;;;;;3.92;0.82;;;7.10;99.90;;;;;;5030815;28;20030;-76
2023/11/16 04:38:04;;;;;;;4.18;0.75;;;7.10;99.90;;;;;;5030493;28;20022;-71
2023/11/16 04:40:29;;;;;;;1.45;0.75;;;7.00;99.90;;;;;;5030878;28;20075;-73
2023/11/16 04:42:55;;;;;;;6.38;0.70;;;7.10;99.90;;;;;;5030540;28;20034;-74
2023/11/16 04:45:21;;;;;;;2.47;0.50;;;7.00;99.90;;;;;;5030664;28;20026;-75
2023/11/16 04:47:47;;;;;;;6.85;0.95;;;7.10;99.90;;;;;;5030976;28;20523;-74
2023/11/16 04:50:16;;;;;;;4.95;0.90;;;7.10;99.90;;;;;;5030296;28;20096;-72
2023/11/16 04:52:42;;;;;;;2.83;0.65;;;7.00;99.90;;;;;;5030742;28;20040;-74
2023/11/16 04:55:08;;;;;;;5.35;0.70;;;7.00;99.90;;;;;;5030351;28;20053;-75
2023/11/16 04:57:34;;;;;;;2.50;0.60;;;6.90;99.90;;;;;;5033870;28;20463;-72
2023/11/16 05:00:00;;;;;;;7.20;0.70;;;6.90;99.90;;;;;;5034196;28;20081;-70
2023/11/16 05:02:25;;;;;;;3.58;0.65;;;6.90;99.90;;;;;;5034326;28;20022;-73
2023/11/16 05:04:53;;;;;;;6.25;0.68;;;6.90;99.90;;;;;;5033421;28;20049;-71
2023/11/16 05:07:20;;;;;;;6.30;0.65;;;6.80;99.90;;;;;;5034216;28;20026;-73
2023/11/16 05:09:45;;;;;;;4.03;0.55;;;6.80;99.90;;;;;;5034676;28;20052;-69
2023/11/16 05:12:11;;;;;;;6.55;0.95;;;6.80;99.90;;;;;;5033840;28;20466;-73
2023/11/16 05:14:40;;;;;;;8.00;0.93;;;6.70;99.90;;;;;;5034454;28;20096;-72
2023/11/16 05:17:06;;;;;;;5.38;0.68;;;6.80;99.90;;;;;;5033412;28;20057;-73
2023/11/16 05:19:32;;;;;;;5.45;0.90;;;6.80;99.90;;;;;;5032801;28;20037;-74
2023/11/16 05:21:57;;;;;;;4.95;1.00;;;6.80;99.90;;;;;;5040233;28;20026;-73
2023/11/16 05:24:24;;;;;;;6.20;0.70;;;6.70;99.90;;;;;;5033788;28;20034;-73
2023/11/16 05:26:50;;;;;;;8.70;0.65;;;6.80;99.90;;;;;;5034150;28;20026;-72
2023/11/16 05:29:16;;;;;;;4.97;0.90;;;6.70;99.90;;;;;;5033733;28;20033;-73
2023/11/16 05:31:41;;;;;;;7.45;1.30;;;6.70;99.90;;;;;;5033993;28;20033;-74
2023/11/16 05:34:08;;;;;;;4.57;0.80;;;6.70;99.90;;;;;;5033372;28;20053;-73
2023/11/16 05:36:36;;;;;;;4.30;0.75;;;6.70;99.90;;;;;;5033815;28;20026;-73
2023/11/16 05:39:03;;;;;;;9.98;0.70;;;6.70;99.90;;;;;;5033664;28;20086;-72
2023/11/16 05:41:29;;;;;;;5.63;0.90;;;6.70;99.90;;;;;;5033576;28;20025;-72
2023/11/16 05:43:54;;;;;;;8.13;0.90;;;6.70;99.90;;;;;;5034041;28;20033;-73
2023/11/16 05:46:20;;;;;;;7.15;0.80;;;6.70;99.90;;;;;;5033402;28;20036;-75
2023/11/16 05:48:46;;;;;;;5.95;0.80;;;6.70;99.90;;;;;;5033533;28;20025;-75
2023/11/16 05:51:12;;;;;;;5.68;0.65;;;6.70;99.90;;;;;;5033451;28;20086;-73
2023/11/16 05:53:38;;;;;;;9.73;0.93;;;6.60;99.90;;;;;;5033201;28;20025;-74
2023/11/16 05:56:04;;;;;;;6.13;0.85;;;6.70;99.90;;;;;;5033183;28;20025;-73
2023/11/16 05:58:30;;;;;;;11.13;0.98;;;6.70;99.90;;;;;;5039862;28;21586;-73
2023/11/16 06:00:55;;;;;;;11.57;1.10;;;6.60;99.90;;;;;;5033452;28;20069;-73
2023/11/16 06:03:26;;;;;;;10.70;1.15;;;6.60;99.90;;;;;;5033525;28;20018;-73
2023/11/16 06:05:53;;;;;;;7.47;0.70;;;6.60;99.90;;;;;;5033403;28;20037;-72
2023/11/16 06:08:19;;;;;;;2.20;0.52;;;6.60;99.90;;;;;;5031570;28;20040;-74
2023/11/16 06:10:45;;;;;;;6.68;0.90;;;6.60;99.90;;;;;;5033631;28;20044;-74
2023/11/16 06:13:10;;;;;;;7.78;0.88;;;6.60;99.90;;;;;;5033131;28;20032;-76
2023/11/16 06:15:36;;;;;;;10.70;1.13;;;6.60;99.90;;;;;;5031707;28;20517;-74
2023/11/16 06:18:02;;;;;;;8.27;1.00;;;6.60;99.90;;;;;;5033834;28;20025;-72
2023/11/16 06:20:29;;;;;;;9.13;0.77;;;6.60;99.90;;;;;;5031880;28;20034;-76
2023/11/16 06:22:55;;;;;;;8.63;0.80;;;6.60;99.90;;;;;;5032652;28;20021;-73
2023/11/16 06:25:21;;;;;;;6.32;1.05;;;6.60;99.90;;;;;;5035663;28;20050;-76
2023/11/16 06:27:48;;;;;;;3.30;0.70;;;6.60;99.90;;;;;;5032973;28;20018;-75
2023/11/16 06:30:14;;;;;;;5.28;0.70;;;6.50;99.90;;;;;;5032616;28;20029;-74
2023/11/16 06:32:41;;;;;;;9.75;1.02;;;6.50;99.90;;;;;;5032052;28;20018;-74
2023/11/16 06:35:08;;;;;;;5.25;0.80;;;6.50;99.90;;;;;;5032401;28;20131;-73
2023/11/16 06:37:34;;;;;;;1.98;0.65;;;6.40;99.90;;;;;;5037148;28;20021;-72
2023/11/16 06:40:00;;;;;;;4.85;1.00;;;6.50;99.90;;;;;;5031248;28;20076;-75
2023/11/16 06:42:26;;;;;;;4.03;0.85;;;6.40;99.90;;;;;;5032502;28;20060;-74
2023/11/16 06:44:52;;;;;;;10.40;1.25;;;6.40;99.90;;;;;;5032349;28;20064;-76
2023/11/16 06:47:17;;;;;;;8.85;1.27;;;6.40;99.90;;;;;;5031155;28;20037;-75
2023/11/16 06:49:49;;;;;;;5.90;1.00;;;6.40;99.90;;;;;;5032124;28;20548;-75
2023/11/16 06:52:17;;;;;;;7.40;0.70;;;6.30;99.90;;;;;;5029683;28;20025;-75
2023/11/16 06:54:42;;;;;;;9.07;0.90;;;6.30;99.90;;;;;;5031179;28;20052;-72
2023/11/16 06:57:09;;;;;;;8.98;0.90;;;6.30;99.90;;;;;;5031567;28;20030;-73
2023/11/16 06:59:35;;;;;;;8.95;0.90;;;6.30;99.90;;;;;;5032302;28;20048;-76
2023/11/16 07:02:01;;;;;;;9.20;1.15;;;6.30;99.90;;;;;;5031851;28;20029;-75
2023/11/16 07:04:26;;;;;;;7.60;1.20;;;6.30;99.90;;;;;;5031066;28;20032;-75
2023/11/16 07:06:52;;;;;;;4.95;1.17;;;6.30;99.90;;;;;;5036882;28;20025;-74
2023/11/16 07:09:23;;;;;;;9.23;1.00;;;6.30;99.90;;;;;;5031956;28;20072;-75
2023/11/16 07:11:53;;;;;;;1.67;0.77;;;6.30;99.90;;;;;;5031456;28;20025;-74
2023/11/16 07:14:19;;;;;;;11.23;1.48;;;6.30;99.90;;;;;;5029725;28;20140;-74
2023/11/16 07:16:45;;;;;;;10.00;1.65;;;6.30;99.90;;;;;;5031583;28;20045;-75
2023/11/16 07:19:12;;;;;;;6.57;1.02;;;6.30;99.90;;;;;;5031572;28;20049;-73
2023/11/16 07:21:39;;;;;;;5.20;0.90;;;6.20;99.90;;;;;;5032030;28;20026;-76
2023/11/16 07:24:05;;;;;;;5.95;1.05;;;6.30;99.90;;;;;;5038003;28;20113;-71
2023/11/16 07:26:31;;;;;;;2.80;0.75;;;6.30;99.90;;;;;;5031406;28;20060;-74
2023/11/16 07:28:57;;;;;;;7.00;1.27;;;6.40;99.90;;;;;;5031737;28;20028;-75
2023/11/16 07:31:24;;;;;;;3.63;1.02;;;6.40;99.90;;;;;;5031495;28;20069;-76
2023/11/16 07:33:52;;;;;;;7.05;0.88;;;6.40;99.90;;;;;;5031380;28;20026;-74
2023/11/16 07:36:27;;;;;;;8.48;1.50;;;6.40;99.90;;;;;;5031264;28;20030;-75
2023/11/16 07:38:57;;;;;;;8.88;1.08;;;6.50;99.90;;;;;;5030161;28;20025;-74
2023/11/16 07:41:23;;;;;;;7.07;1.75;;;6.60;99.90;;;;;;5047026;28;20030;-75
2023/11/16 07:43:50;;;;;;;8.32;1.38;;;6.70;99.90;;;;;;5038472;28;20049;-74
2023/11/16 07:46:19;;;;;;;6.70;1.13;;;6.80;99.90;;;;;;5031123;28;20470;-74
2023/11/16 07:48:48;;;;;;;6.03;1.60;;;7.00;99.90;;;;;;5031981;28;20033;-76
2023/11/16 07:51:13;;;;;;;6.07;1.23;;;6.90;99.90;;;;;;5031453;28;20029;-76
2023/11/16 07:53:41;;;;;;;5.60;1.00;;;6.90;99.90;;;;;;5029883;28;20108;-75
2023/11/16 07:56:08;;;;;;;6.18;1.15;;;6.90;99.90;;;;;;5030747;28;20448;-73
2023/11/16 07:58:34;;;;;;;4.13;1.40;;;7.00;99.90;;;;;;5031348;28;20458;-74
2023/11/16 08:01:04;;;;;;;8.73;1.05;;;7.10;99.90;;;;;;5030197;28;20022;-77
2023/11/16 08:03:42;;;;;;;3.80;1.15;;;7.40;99.90;;;;;;5031260;28;20051;-73
2023/11/16 08:06:14;;;;;;;4.90;1.10;;;7.70;99.90;;;;;;5029421;28;20041;-76
2023/11/16 08:08:46;;;;;;;4.03;1.20;;;7.90;99.90;;;;;;5030495;28;20030;-72
2023/11/16 08:11:14;;;;;;;7.00;1.00;;;8.20;99.90;;;;;;5031396;28;20036;-74
2023/11/16 08:13:41;;;;;;;5.72;1.45;;;8.40;99.90;;;;;;5030402;28;20086;-76
2023/11/16 08:16:10;;;;;;;4.25;1.27;;;8.60;99.90;;;;;;5030838;28;20586;-74
2023/11/16 08:18:41;;;;;;;6.95;1.20;;;8.90;99.90;;;;;;5029488;28;20033;-76
2023/11/16 08:21:07;;;;;;;4.65;1.40;;;9.10;99.90;;;;;;5032592;28;20477;-77
2023/11/16 08:23:38;;;;;;;6.68;1.27;;;9.30;99.90;;;;;;5030726;28;20431;-70
2023/11/16 08:26:06;;;;;;;4.32;1.00;;;9.20;99.90;;;;;;5031217;28;20044;-74
2023/11/16 08:28:32;;;;;;;3.78;0.90;;;9.20;99.90;;;;;;5030054;28;20034;-74
2023/11/16 08:31:01;;;;;;;8.70;1.73;;;9.00;99.90;;;;;;5036504;28;20026;-75
2023/11/16 08:33:27;;;;;;;4.00;0.90;;;9.00;99.90;;;;;;5029732;28;20018;-74
2023/11/16 08:35:53;;;;;;;3.35;1.00;;;8.80;99.90;;;;;;5030521;28;20033;-74
2023/11/16 08:38:19;;;;;;;7.57;1.10;;;8.70;99.90;;;;;;5037463;28;20026;-75
2023/11/16 08:40:45;;;;;;;6.15;1.15;;;8.70;99.90;;;;;;5031089;28;20120;-74
2023/11/16 08:43:11;;;;;;;12.50;1.50;;;8.50;99.90;;;;;;5036731;28;20837;-74
2023/11/16 08:45:39;;;;;;;3.35;0.82;;;8.30;99.90;;;;;;5037154;28;20057;-74
2023/11/16 08:48:07;;;;;;;2.72;0.98;;;8.20;99.90;;;;;;5030620;28;20042;-73
2023/11/16 08:50:33;;;;;;;6.20;1.05;;;8.20;99.90;;;;;;5030070;28;20013;-73
2023/11/16 08:53:00;;;;;;;6.00;0.90;;;8.20;99.90;;;;;;5030399;28;20128;-76
2023/11/16 08:55:26;;;;;;;5.35;1.00;;;8.30;99.90;;;;;;5030208;28;20172;-74
2023/11/16 08:57:53;;;;;;;4.65;1.20;;;8.20;99.90;;;;;;5029965;28;20029;-74
2023/11/16 09:00:27;;;;;;;6.53;1.30;;;8.20;99.90;;;;;;5030753;28;20026;-74
2023/11/16 09:03:03;;;;;;;;;;;8.10;99.90;;;;;;5031157;28;20058;-73
2023/11/16 09:05:29;;;;;;;5.95;1.20;;;8.00;99.90;;;;;;5029985;28;19917;-74
2023/11/16 09:07:56;;;;;;;6.57;1.00;;;8.00;99.90;;;;;;5028323;28;20037;-75
2023/11/16 09:10:22;;;;;;;4.88;0.90;;;8.00;99.90;;;;;;5029625;28;20030;-75
2023/11/16 09:12:55;;;;;;;9.50;1.60;;;7.90;99.90;;;;;;5028562;28;20022;-76
2023/11/16 09:15:22;;;;;;;8.75;1.48;;;8.10;99.90;;;;;;5030775;28;20041;-71
2023/11/16 09:17:51;;;;;;;4.30;1.08;;;8.00;99.90;;;;;;5030417;28;20025;-75
2023/11/16 09:20:22;;;;;;;6.90;1.08;;;8.00;99.90;;;;;;5030552;28;20636;-76
2023/11/16 09:22:49;;;;;;;5.57;0.88;;;8.00;99.90;;;;;;5037761;28;20075;-75
2023/11/16 09:25:19;;;;;;;3.55;1.17;;;8.10;99.90;;;;;;5029050;28;20107;-71
2023/11/16 09:27:54;;;;;;;7.95;1.42;;;8.10;99.90;;;;;;5033296;28;20036;-73
2023/11/16 09:30:27;;;;;;;8.50;1.35;;;8.20;99.90;;;;;;5032922;28;20026;-75
2023/11/16 09:33:00;;;;;;;4.75;1.27;;;8.20;99.90;;;;;;5032031;28;20022;-74
2023/11/16 09:35:27;;;;;;;5.45;0.95;;;8.30;99.90;;;;;;5030376;28;20112;-76
2023/11/16 09:37:54;;;;;;;20.25;1.38;;;8.40;99.90;;;;;;5029845;28;20047;-75
2023/11/16 09:40:38;;;;;;;7.80;1.48;;;8.30;99.90;;;;;;5029519;28;20026;-73
2023/11/16 09:43:20;;;;;;;8.68;1.35;;;8.40;99.90;;;;;;5032719;28;20072;-74
2023/11/16 09:45:53;;;;;;;8.35;1.17;;;8.40;99.90;;;;;;5032822;28;20689;-75
2023/11/16 09:48:22;;;;;;;7.97;1.20;;;8.50;99.90;;;;;;5034448;28;20029;-73
2023/11/16 09:50:53;;;;;;;4.28;1.27;;;8.60;99.90;;;;;;5036081;28;20268;-77
2023/11/16 09:53:23;;;;;;;9.15;2.17;;;8.60;99.90;;;;;;5033099;28;20060;-75
2023/11/16 09:56:04;;;;;;;6.43;1.48;;;8.70;99.90;;;;;;5033385;28;20501;-76
2023/11/16 09:58:36;;;;;;;6.38;2.17;;;8.70;99.90;;;;;;5032004;28;20086;-75
2023/11/16 10:01:05;;;;;;;14.43;2.00;;;8.70;99.90;;;;;;5033279;28;20017;-74
2023/11/16 10:03:34;;;;;;;9.18;1.50;;;8.90;99.90;;;;;;5033394;28;20101;-75
2023/11/16 10:06:03;;;;;;;4.65;1.15;;;8.90;99.90;;;;;;5032883;28;20026;-74
2023/11/16 10:08:29;;;;;;;7.45;1.13;;;8.80;99.90;;;;;;5033335;28;20044;-75
2023/11/16 10:10:57;;;;;;;5.85;1.30;;;8.70;99.90;;;;;;5039496;28;20085;-76
2023/11/16 10:13:27;;;;;;;8.32;1.70;;;8.60;99.90;;;;;;5029563;28;20025;-74
2023/11/16 10:15:58;;;;;;;13.00;1.50;;;8.60;99.90;;;;;;5029135;28;20050;-74
2023/11/16 10:18:25;;;;;;;4.70;1.25;;;8.50;99.90;;;;;;5032728;28;20025;-75
2023/11/16 10:20:53;;;;;;;5.38;1.40;;;8.40;99.90;;;;;;5032049;28;20017;-75
2023/11/16 10:23:19;;;;;;;11.77;1.55;;;8.40;99.90;;;;;;5031861;28;20021;-75
2023/11/16 10:25:48;;;;;;;8.38;1.60;;;8.30;99.90;;;;;;5031390;28;20040;-74
2023/11/16 10:28:21;;;;;;;8.60;1.48;;;8.20;99.90;;;;;;5032108;28;20057;-74
2023/11/16 10:30:50;;;;;;;9.00;1.75;;;8.20;99.90;;;;;;5031205;28;20040;-75
2023/11/16 10:33:17;;;;;;;6.10;1.83;;;8.10;99.90;;;;;;5036596;28;20055;-72
2023/11/16 10:35:50;;;;;;;7.38;1.80;;;8.10;99.90;;;;;;5032261;28;20164;-75
2023/11/16 10:38:27;;;;;;;5.32;1.60;;;8.00;99.90;;;;;;5048125;28;20037;-75
2023/11/16 10:40:55;;;;;;;9.50;1.80;;;8.10;99.90;;;;;;5047031;28;20467;-73
2023/11/16 10:43:28;;;;;;;6.18;1.60;;;8.00;99.90;;;;;;5032793;28;20022;-75
2023/11/16 10:45:59;;;;;;;7.10;1.65;;;7.90;99.90;;;;;;5032442;28;20034;-74
2023/11/16 10:48:26;;;;;;;7.80;2.05;;;8.00;99.90;;;;;;5031690;28;20040;-74
2023/11/16 10:50:52;;;;;;;5.28;2.30;;;8.00;99.90;;;;;;5039337;28;20022;-75
2023/11/16 10:53:23;;;;;;;6.93;1.88;;;8.10;99.90;;;;;;5031973;28;20049;-76
2023/11/16 10:55:58;;;;;;;10.45;1.70;;;8.20;99.90;;;;;;5046898;28;20022;-76
2023/11/16 10:58:27;;;;;;;7.40;1.85;;;8.30;99.90;;;;;;5032611;28;20032;-74
2023/11/16 11:00:59;;;;;;;6.43;1.67;;;8.40;99.90;;;;;;5031665;28;20021;-75
2023/11/16 11:03:24;;;;;;;6.20;1.25;;;8.50;99.90;;;;;;5047462;28;20107;-75
2023/11/16 11:05:52;;;;;;;6.68;1.40;;;8.80;99.90;;;;;;5031890;28;20042;-75
2023/11/16 11:08:24;;;;;;;9.02;1.40;;;9.00;99.90;;;;;;5031782;28;20065;-74
2023/11/16 11:10:52;;;;;;;5.55;1.45;;;9.20;99.90;;;;;;5032075;28;20034;-75
2023/11/16 11:13:26;;;;;;;8.35;1.67;;;9.40;99.90;;;;;;5032329;28;20079;-75
2023/11/16 11:15:54;;;;;;;7.03;1.48;;;9.50;99.90;;;;;;5031179;28;20060;-72
2023/11/16 11:18:27;;;;;;;4.93;1.20;;;9.60;99.90;;;;;;5032039;28;20356;-72
2023/11/16 11:21:04;;;;;;;5.28;1.38;;;9.70;99.90;;;;;;5031904;28;20026;-74
2023/11/16 11:23:29;;;;;;;6.43;1.45;;;9.70;99.90;;;;;;5031351;28;20048;-73
2023/11/16 11:26:03;;;;;;;3.97;1.30;;;9.80;99.90;;;;;;5031891;28;20495;-73
2023/11/16 11:28:28;;;;;;;2.23;1.00;;;10.00;99.90;;;;;;5032159;28;20080;-74
2023/11/16 11:30:58;;;;;;;8.02;1.30;;;10.30;99.90;;;;;;5031008;28;20025;-75
2023/11/16 11:33:37;;;;;;;8.35;2.25;;;10.60;99.90;;;;;;5031833;28;20021;-74
2023/11/16 11:36:08;;;;;;;6.35;1.20;;;10.80;99.90;;;;;;5031292;28;20868;-74
2023/11/16 11:38:38;;;;;;;7.95;1.20;;;10.90;99.90;;;;;;5027787;28;20041;-75
2023/11/16 11:41:12;;;;;;;9.00;1.40;;;11.20;99.90;;;;;;5027944;28;20121;-74
2023/11/16 11:43:39;;;;;;;10.50;1.25;;;11.20;99.90;;;;;;5030198;28;20029;-72
2023/11/16 11:46:09;;;;;;;5.65;1.75;;;11.10;99.90;;;;;;5028568;28;20054;-75
2023/11/16 11:48:39;;;;;;;3.50;1.27;;;11.00;99.90;;;;;;5031292;28;20030;-73
2023/11/16 11:51:08;;;;;;;4.97;1.27;;;11.00;99.90;;;;;;5030420;28;20021;-75
2023/11/16 11:53:34;;;;;;;5.03;1.35;;;10.80;99.90;;;;;;5045473;28;20029;-75
2023/11/16 11:56:02;;;;;;;7.10;1.30;;;10.60;99.90;;;;;;5029539;28;20048;-74
2023/11/16 11:58:27;;;;;;;4.97;1.27;;;10.40;99.90;;;;;;5030206;28;20028;-74
2023/11/16 12:00:56;;;;;;;6.50;1.25;;;10.40;99.90;;;;;;5030475;28;20033;-74
2023/11/16 12:03:22;;;;;;;6.03;1.27;;;10.50;99.90;;;;;;5035357;28;20535;-75
2023/11/16 12:06:08;;;;;;;8.00;1.50;;;10.70;99.90;;;;;;5028294;28;20077;-74
2023/11/16 12:08:43;;;;;;;3.83;1.10;;;10.60;99.90;;;;;;5029149;28;20121;-75
2023/11/16 12:11:10;;;;;;;3.33;1.30;;;10.70;99.90;;;;;;5029031;28;20029;-75
2023/11/16 12:13:40;;;;;;;4.70;1.20;;;10.70;99.90;;;;;;5030197;28;20025;-75
2023/11/16 12:16:06;;;;;;;8.10;1.48;;;10.60;99.90;;;;;;5030318;28;20078;-75
2023/11/16 12:18:37;;;;;;;6.13;1.38;;;10.40;99.90;;;;;;5030538;28;20045;-75
2023/11/16 12:21:07;;;;;;;5.65;1.35;;;10.10;99.90;;;;;;5030175;28;20033;-76
2023/11/16 12:23:32;;;;;;;9.88;1.85;;;9.90;99.90;;;;;;5029355;28;20032;-75
2023/11/16 12:26:02;;;;;;;4.50;1.40;;;9.70;99.90;;;;;;5030249;28;20049;-76
2023/11/16 12:28:28;;;;;;;5.53;1.30;;;9.50;99.90;;;;;;5030217;28;20042;-76
2023/11/16 12:30:58;;;;;;;5.13;1.35;;;9.40;99.90;;;;;;5030684;28;20033;-76
2023/11/16 12:33:24;;;;;;;8.02;1.50;;;9.20;99.90;;;;;;5030298;28;20022;-76
2023/11/16 12:35:50;;;;;;;3.92;1.33;;;9.10;99.90;;;;;;5030039;28;20034;-75
2023/11/16 12:38:19;;;;;;;8.05;1.40;;;9.10;99.90;;;;;;5028917;28;20026;-76
2023/11/16 12:40:45;;;;;;;4.88;1.40;;;9.00;99.90;;;;;;5029985;28;20474;-75
2023/11/16 12:43:11;;;;;;;6.97;1.42;;;8.90;99.90;;;;;;5030311;28;20025;-74
2023/11/16 12:45:37;;;;;;;5.97;1.02;;;9.00;99.90;;;;;;5030244;28;20048;-75
2023/11/16 12:48:06;;;;;;;8.15;1.23;;;9.20;99.90;;;;;;5029616;28;20029;-74
2023/11/16 12:50:32;;;;;;;5.05;1.00;;;9.50;99.90;;;;;;5034068;28;20141;-76
2023/11/16 12:52:58;;;;;;;3.85;0.95;;;9.80;99.90;;;;;;5029393;28;20057;-76
2023/11/16 12:55:24;;;;;;;2.72;0.93;;;10.10;99.90;;;;;;5029672;28;20026;-77
2023/11/16 12:57:49;;;;;;;6.90;1.00;;;10.30;99.90;;;;;;5030345;28;20034;-77